createdAt,value
2022-12-11T00:00:54.114Z,8.48
2022-12-11T00:03:20.827Z,9.60
2022-12-11T00:05:47.395Z,8.32
2022-12-11T00:08:14.262Z,9.68
2022-12-11T00:10:48.025Z,9.15
2022-12-11T00:13:14.564Z,9.20
2022-12-11T00:15:41.075Z,10.73
2022-12-11T00:18:12.033Z,11.20
2022-12-11T00:20:38.514Z,10.43
2022-12-11T00:23:05.500Z,10.18
2022-12-11T00:25:32.010Z,12.02
2022-12-11T00:27:58.530Z,10.50
2022-12-11T00:30:25.017Z,12.00
2022-12-11T00:32:51.911Z,12.13
2022-12-11T00:35:18.445Z,11.88
2022-12-11T00:37:44.974Z,12.50
2022-12-11T00:40:11.601Z,11.23
2022-12-11T00:42:38.277Z,11.82
2022-12-11T00:45:04.963Z,10.15
2022-12-11T00:47:31.495Z,9.38
2022-12-11T00:49:58.044Z,10.50
2022-12-11T00:52:24.726Z,10.88
2022-12-11T00:54:51.209Z,9.80
2022-12-11T00:57:17.715Z,9.93
2022-12-11T00:59:44.272Z,9.90
2022-12-11T01:02:10.777Z,9.93
2022-12-11T01:04:37.482Z,10.02
2022-12-11T01:07:04.298Z,9.15
2022-12-11T01:09:49.192Z,10.93
2022-12-11T01:12:15.732Z,9.75
2022-12-11T01:14:42.234Z,10.38
2022-12-11T01:17:08.729Z,9.30
2022-12-11T01:19:35.267Z,10.82
2022-12-11T01:22:01.733Z,10.50
2022-12-11T01:24:28.507Z,10.00
2022-12-11T01:26:54.973Z,10.60
2022-12-11T01:29:21.481Z,10.55
2022-12-11T01:31:47.980Z,10.90
2022-12-11T01:34:14.490Z,9.35
2022-12-11T01:36:40.972Z,9.93
2022-12-11T01:39:07.518Z,8.98
2022-12-11T01:41:34.049Z,11.18
2022-12-11T01:44:21.207Z,11.88
2022-12-11T01:46:47.937Z,10.38
2022-12-11T01:49:15.582Z,11.02
2022-12-11T01:51:55.015Z,9.95
2022-12-11T01:54:22.940Z,12.18
2022-12-11T01:56:51.978Z,11.77
2022-12-11T01:59:21.420Z,10.73
2022-12-11T02:01:52.885Z,11.80
2022-12-11T02:04:20.014Z,11.52
2022-12-11T02:06:48.961Z,10.55
2022-12-11T02:09:18.373Z,11.18
2022-12-11T02:12:00.096Z,10.40
2022-12-11T02:14:44.246Z,11.38
2022-12-11T02:17:14.541Z,11.57
2022-12-11T02:20:07.239Z,12.73
2022-12-11T02:22:38.775Z,10.20
2022-12-11T02:25:16.890Z,11.23
2022-12-11T02:27:56.394Z,12.63
2022-12-11T02:30:23.677Z,12.80
2022-12-11T02:32:56.883Z,11.48
2022-12-11T02:35:31.423Z,11.63
2022-12-11T02:38:02.667Z,11.73
2022-12-11T02:40:31.826Z,12.45
2022-12-11T02:43:01.345Z,11.82
2022-12-11T02:45:28.645Z,11.95
2022-12-11T02:47:57.518Z,11.15
2022-12-11T02:50:25.102Z,11.15
2022-12-11T02:52:54.238Z,12.02
2022-12-11T02:55:20.796Z,11.27
2022-12-11T02:57:53.883Z,12.38
2022-12-11T03:00:21.827Z,10.90
2022-12-11T03:02:48.975Z,12.10
2022-12-11T03:05:15.806Z,11.35
2022-12-11T03:07:44.254Z,11.45
2022-12-11T03:10:14.609Z,11.02
2022-12-11T03:12:43.499Z,10.98
2022-12-11T03:15:14.600Z,11.65
2022-12-11T03:17:54.831Z,11.40
2022-12-11T03:20:30.826Z,11.32
2022-12-11T03:23:21.571Z,11.38
2022-12-11T03:25:57.342Z,10.13
2022-12-11T03:28:29.576Z,10.68
2022-12-11T03:30:56.507Z,11.93
2022-12-11T03:33:30.951Z,10.80
2022-12-11T03:36:04.085Z,9.18
2022-12-11T03:38:42.715Z,9.52
2022-12-11T03:41:10.246Z,10.32
2022-12-11T03:43:37.497Z,10.05
2022-12-11T03:46:04.731Z,9.30
2022-12-11T03:48:33.959Z,10.15
2022-12-11T03:51:02.535Z,11.80
2022-12-11T03:53:29.229Z,10.88
2022-12-11T03:55:58.204Z,11.85
2022-12-11T03:58:24.808Z,10.05
2022-12-11T04:00:51.319Z,11.07
2022-12-11T04:03:17.975Z,9.93
2022-12-11T04:05:49.636Z,9.60
2022-12-11T04:08:17.989Z,12.40
2022-12-11T04:10:44.567Z,10.15
2022-12-11T04:13:11.089Z,11.65
2022-12-11T04:15:38.249Z,10.70
2022-12-11T04:18:40.850Z,12.35
2022-12-11T04:21:27.549Z,10.88
2022-12-11T04:24:12.502Z,11.52
2022-12-11T04:26:39.133Z,10.77
2022-12-11T04:29:05.722Z,11.23
2022-12-11T04:31:32.644Z,10.65
2022-12-11T04:33:59.180Z,10.20
2022-12-11T04:36:25.687Z,12.73
2022-12-11T04:38:52.186Z,11.98
2022-12-11T04:41:18.882Z,12.07
2022-12-11T04:43:45.540Z,11.27
2022-12-11T04:46:21.930Z,11.10
2022-12-11T04:48:52.532Z,11.13
2022-12-11T04:51:23.539Z,11.45
2022-12-11T04:53:50.030Z,8.90
2022-12-11T04:56:16.887Z,8.35
2022-12-11T04:58:44.202Z,10.82
2022-12-11T05:01:16.635Z,10.13
2022-12-11T05:03:43.381Z,11.30
2022-12-11T05:06:10.325Z,9.75
2022-12-11T05:08:38.443Z,9.82
2022-12-11T05:11:06.851Z,10.82
2022-12-11T05:13:33.392Z,10.00
2022-12-11T05:16:00.009Z,9.75
2022-12-11T05:18:26.622Z,11.38
2022-12-11T05:21:01.175Z,10.20
2022-12-11T05:23:27.754Z,10.05
2022-12-11T05:25:55.590Z,10.38
2022-12-11T05:28:23.274Z,10.30
2022-12-11T05:30:57.992Z,10.15
2022-12-11T05:33:25.298Z,9.82
2022-12-11T05:35:52.137Z,11.15
2022-12-11T05:38:18.942Z,10.50
2022-12-11T05:40:45.443Z,9.88
2022-12-11T05:43:11.968Z,10.52
2022-12-11T05:45:38.821Z,11.02
2022-12-11T05:48:05.501Z,10.27
2022-12-11T05:50:32.926Z,10.25
2022-12-11T05:53:00.014Z,10.75
2022-12-11T05:55:26.546Z,11.50
2022-12-11T05:57:53.062Z,12.50
2022-12-11T06:00:19.615Z,11.57
2022-12-11T06:02:46.150Z,12.80
2022-12-11T06:05:17.671Z,13.38
2022-12-11T06:07:50.059Z,12.82
2022-12-11T06:10:16.838Z,12.02
2022-12-11T06:12:43.463Z,13.77
2022-12-11T06:15:19.185Z,12.30
2022-12-11T06:17:45.679Z,12.43
2022-12-11T06:20:12.205Z,13.15
2022-12-11T06:22:38.891Z,11.70
2022-12-11T06:25:06.285Z,13.32
2022-12-11T06:27:40.597Z,12.23
2022-12-11T06:30:19.075Z,12.88
2022-12-11T06:32:53.473Z,11.00
2022-12-11T06:35:20.263Z,13.07
2022-12-11T06:37:49.772Z,13.85
2022-12-11T06:40:16.442Z,12.85
2022-12-11T06:42:43.019Z,13.00
2022-12-11T06:45:10.507Z,12.38
2022-12-11T06:47:37.311Z,11.95
2022-12-11T06:50:04.053Z,12.98
2022-12-11T06:52:34.221Z,12.82
2022-12-11T06:55:07.012Z,13.07
2022-12-11T06:57:37.005Z,13.68
2022-12-11T07:00:04.283Z,13.55
2022-12-11T07:02:30.842Z,13.63
2022-12-11T07:04:57.377Z,13.35
2022-12-11T07:07:23.911Z,13.10
2022-12-11T07:09:51.608Z,14.00
2022-12-11T07:12:18.211Z,13.77
2022-12-11T07:14:44.822Z,14.18
2022-12-11T07:17:11.385Z,14.65
2022-12-11T07:19:37.904Z,14.27
2022-12-11T07:22:04.410Z,13.50
2022-12-11T07:24:31.063Z,13.20
2022-12-11T07:26:57.733Z,15.10
2022-12-11T07:29:24.251Z,14.85
2022-12-11T07:31:50.894Z,13.82
2022-12-11T07:34:17.413Z,12.32
2022-12-11T07:36:43.997Z,15.05
2022-12-11T07:39:12.116Z,13.80
2022-12-11T07:41:39.466Z,14.55
2022-12-11T07:44:10.411Z,13.20
2022-12-11T07:46:37.655Z,13.35
2022-12-11T07:49:05.961Z,13.85
2022-12-11T07:51:36.342Z,13.02
2022-12-11T07:54:16.360Z,13.90
2022-12-11T07:56:51.160Z,13.43
2022-12-11T07:59:20.980Z,12.35
2022-12-11T08:01:49.244Z,14.02
2022-12-11T08:04:15.977Z,13.40
2022-12-11T08:06:43.177Z,12.13
2022-12-11T08:09:17.486Z,12.02
2022-12-11T08:11:49.582Z,11.68
2022-12-11T08:14:16.335Z,12.80
2022-12-11T08:16:44.185Z,14.18
2022-12-11T08:19:13.932Z,13.30
2022-12-11T08:21:40.920Z,13.40
2022-12-11T08:24:08.392Z,12.73
2022-12-11T08:26:34.919Z,13.05
2022-12-11T08:29:02.562Z,13.05
2022-12-11T08:31:29.694Z,12.38
2022-12-11T08:33:56.963Z,13.65
2022-12-11T08:36:23.756Z,12.35
2022-12-11T08:38:50.804Z,12.85
2022-12-11T08:41:36.219Z,13.38
2022-12-11T08:44:05.962Z,11.43
2022-12-11T08:46:32.815Z,12.43
2022-12-11T08:48:59.809Z,12.43
2022-12-11T08:51:27.935Z,13.38
2022-12-11T08:53:56.122Z,12.50
2022-12-11T08:56:23.726Z,13.20
2022-12-11T08:58:58.478Z,12.45
2022-12-11T09:01:26.471Z,13.52
2022-12-11T09:03:54.815Z,13.27
2022-12-11T09:06:23.544Z,12.00
2022-12-11T09:08:52.993Z,13.82
2022-12-11T09:11:22.872Z,14.00
2022-12-11T09:13:49.529Z,13.95
2022-12-11T09:16:17.718Z,12.18
2022-12-11T09:18:49.287Z,13.45
2022-12-11T09:21:18.358Z,14.30
2022-12-11T09:23:44.853Z,13.80
2022-12-11T09:26:14.428Z,12.43
2022-12-11T09:28:46.324Z,12.98
2022-12-11T09:31:16.136Z,12.52
2022-12-11T09:33:42.833Z,10.55
2022-12-11T09:36:10.038Z,13.95
2022-12-11T09:38:36.629Z,12.57
2022-12-11T09:41:22.396Z,11.93
2022-12-11T09:43:54.350Z,11.48
2022-12-11T09:46:24.439Z,11.77
2022-12-11T09:48:53.441Z,11.68
2022-12-11T09:51:19.947Z,11.20
2022-12-11T09:53:46.642Z,11.88
2022-12-11T09:56:29.743Z,11.50
2022-12-11T09:59:08.066Z,12.30
2022-12-11T10:01:40.789Z,11.80
2022-12-11T10:04:35.505Z,11.85
2022-12-11T10:07:14.406Z,12.05
2022-12-11T10:09:44.156Z,12.18
2022-12-11T10:12:26.239Z,12.02
2022-12-11T10:15:16.890Z,11.10
2022-12-11T10:17:47.438Z,12.88
2022-12-11T10:20:28.591Z,12.60
2022-12-11T10:22:56.748Z,12.57
2022-12-11T10:25:32.326Z,12.45
2022-12-11T10:28:00.544Z,12.40
2022-12-11T10:30:34.732Z,12.85
2022-12-11T10:33:10.927Z,11.30
2022-12-11T10:35:46.308Z,11.10
2022-12-11T10:38:21.427Z,10.88
2022-12-11T10:40:52.221Z,9.52
2022-12-11T10:43:18.877Z,10.93
2022-12-11T10:45:53.207Z,11.27
2022-12-11T10:48:20.670Z,10.32
2022-12-11T10:50:57.549Z,10.75
2022-12-11T10:53:24.184Z,11.38
2022-12-11T10:55:50.739Z,11.13
2022-12-11T10:58:20.270Z,10.13
2022-12-11T11:00:58.495Z,9.40
2022-12-11T11:03:27.617Z,8.32
2022-12-11T11:06:21.571Z,8.43
2022-12-11T11:08:50.977Z,8.32
2022-12-11T11:11:33.934Z,8.68
2022-12-11T11:14:05.939Z,7.28
2022-12-11T11:16:36.207Z,8.77
2022-12-11T11:19:02.783Z,7.55
2022-12-11T11:21:30.300Z,8.48
2022-12-11T11:23:56.865Z,7.65
2022-12-11T11:26:23.635Z,8.88
2022-12-11T11:28:55.629Z,7.97
2022-12-11T11:31:31.459Z,8.90
2022-12-11T11:34:00.299Z,8.77
2022-12-11T11:36:28.635Z,8.80
2022-12-11T11:41:58.669Z,7.00
2022-12-11T11:44:30.019Z,7.40
2022-12-11T11:47:10.616Z,8.88
2022-12-11T11:49:55.435Z,7.85
2022-12-11T11:52:28.532Z,8.57
2022-12-11T11:55:21.659Z,7.05
2022-12-11T11:57:55.833Z,7.82
2022-12-11T12:00:31.918Z,8.55
2022-12-11T12:03:04.173Z,7.63
2022-12-11T12:05:50.591Z,8.18
2022-12-11T12:08:33.293Z,7.95
2022-12-11T12:11:10.771Z,8.60
2022-12-11T12:14:12.849Z,8.25
2022-12-11T12:17:26.378Z,9.68
2022-12-11T12:19:53.270Z,10.02
2022-12-11T12:22:35.550Z,10.55
2022-12-11T12:25:24.932Z,10.48
2022-12-11T12:28:00.771Z,10.70
2022-12-11T12:30:32.310Z,10.48
2022-12-11T12:33:04.965Z,11.15
2022-12-11T12:35:36.932Z,11.48
2022-12-11T12:38:22.743Z,11.32
2022-12-11T12:41:04.605Z,10.38
2022-12-11T12:43:53.178Z,9.65
2022-12-11T12:46:27.650Z,9.88
2022-12-11T12:48:55.514Z,9.27
2022-12-11T12:51:22.094Z,10.63
2022-12-11T12:53:59.709Z,10.98
2022-12-11T12:56:28.023Z,10.65
2022-12-11T13:01:27.795Z,9.63
2022-12-11T13:04:03.034Z,10.40
2022-12-11T13:06:41.104Z,10.38
2022-12-11T13:09:17.420Z,11.38
2022-12-11T13:11:45.769Z,12.52
2022-12-11T13:16:43.884Z,11.43
2022-12-11T13:19:42.397Z,11.43
2022-12-11T13:22:12.257Z,11.73
2022-12-11T13:24:48.902Z,13.65
2022-12-11T13:27:29.642Z,11.00
2022-12-11T13:30:23.184Z,12.13
2022-12-11T13:33:14.890Z,12.18
2022-12-11T13:35:41.611Z,12.57
2022-12-11T13:38:15.849Z,12.70
2022-12-11T13:40:44.498Z,12.38
2022-12-11T13:43:28.882Z,12.60
2022-12-11T13:46:03.907Z,11.70
2022-12-11T13:48:34.204Z,11.55
2022-12-11T13:51:01.592Z,13.52
2022-12-11T13:53:28.410Z,11.35
2022-12-11T13:56:00.585Z,14.05
2022-12-11T13:58:28.230Z,11.32
2022-12-11T14:01:11.496Z,10.80
2022-12-11T14:03:52.837Z,12.65
2022-12-11T14:08:48.673Z,11.40
2022-12-11T14:11:27.755Z,14.23
2022-12-11T14:13:55.747Z,12.48
2022-12-11T14:16:24.388Z,12.02
2022-12-11T14:18:51.721Z,10.95
2022-12-11T14:21:20.344Z,14.02
2022-12-11T14:23:58.021Z,12.48
2022-12-11T14:26:27.157Z,12.73
2022-12-11T14:28:53.949Z,11.98
2022-12-11T14:31:31.038Z,12.25
2022-12-11T14:34:02.158Z,11.95
2022-12-11T14:36:29.409Z,12.40
2022-12-11T14:38:59.725Z,12.90
2022-12-11T14:41:36.780Z,14.38
2022-12-11T14:44:05.334Z,10.80
2022-12-11T14:46:39.146Z,13.13
2022-12-11T14:49:12.844Z,11.07
2022-12-11T14:51:40.775Z,13.20
2022-12-11T14:54:07.905Z,12.82
2022-12-11T14:56:34.855Z,12.30
2022-12-11T14:59:06.719Z,13.45
2022-12-11T15:01:35.922Z,8.27
2022-12-11T15:04:14.635Z,12.13
2022-12-11T15:06:46.903Z,11.98
2022-12-11T15:09:28.841Z,13.05
2022-12-11T15:11:57.554Z,12.77
2022-12-11T15:14:25.562Z,10.52
2022-12-11T15:16:54.782Z,12.57
2022-12-11T15:19:31.682Z,11.55
2022-12-11T15:22:05.845Z,12.23
2022-12-11T15:24:38.290Z,12.55
2022-12-11T15:27:04.865Z,12.45
2022-12-11T15:29:39.670Z,11.75
2022-12-11T15:34:43.048Z,11.13
2022-12-11T15:37:18.610Z,11.50
2022-12-11T15:39:45.134Z,10.77
2022-12-11T15:42:14.817Z,12.90
2022-12-11T15:44:41.975Z,11.32
2022-12-11T15:47:13.515Z,12.35
2022-12-11T15:49:40.033Z,11.60
2022-12-11T15:52:06.516Z,12.35
2022-12-11T15:54:33.161Z,10.93
2022-12-11T15:57:01.769Z,12.07
2022-12-11T15:59:28.268Z,12.60
2022-12-11T16:01:54.806Z,11.48
2022-12-11T16:04:21.381Z,12.57
2022-12-11T16:06:47.862Z,11.68
2022-12-11T16:09:14.409Z,12.90
2022-12-11T16:11:40.899Z,12.05
2022-12-11T16:14:07.380Z,12.88
2022-12-11T16:16:33.895Z,13.82
2022-12-11T16:19:00.748Z,12.27
2022-12-11T16:21:27.275Z,13.27
2022-12-11T16:23:53.809Z,11.75
2022-12-11T16:26:20.377Z,12.27
2022-12-11T16:28:46.886Z,14.02
2022-12-11T16:31:14.800Z,13.13
2022-12-11T16:33:41.698Z,13.77
2022-12-11T16:36:21.932Z,13.13
2022-12-11T16:38:53.570Z,11.80
2022-12-11T16:41:22.818Z,12.57
2022-12-11T16:43:49.717Z,12.55
2022-12-11T16:46:20.350Z,12.50
2022-12-11T16:48:47.050Z,13.73
2022-12-11T16:51:13.879Z,11.80
2022-12-11T16:53:40.867Z,13.38
2022-12-11T16:56:08.320Z,12.82
2022-12-11T16:58:35.275Z,11.48
2022-12-11T17:01:02.364Z,12.93
2022-12-11T17:03:30.234Z,13.32
2022-12-11T17:05:57.712Z,14.43
2022-12-11T17:08:24.749Z,12.77
2022-12-11T17:10:52.175Z,12.90
2022-12-11T17:13:18.819Z,14.63
2022-12-11T17:15:45.683Z,11.38
2022-12-11T17:18:12.402Z,11.52
2022-12-11T17:20:42.818Z,13.07
2022-12-11T17:23:11.015Z,12.52
2022-12-11T17:25:44.799Z,14.38
2022-12-11T17:28:13.622Z,12.25
2022-12-11T17:30:44.157Z,13.02
2022-12-11T17:33:11.704Z,11.50
2022-12-11T17:35:38.656Z,13.10
2022-12-11T17:38:05.315Z,12.32
2022-12-11T17:40:32.087Z,12.93
2022-12-11T17:42:59.278Z,13.35
2022-12-11T17:45:25.827Z,13.98
2022-12-11T17:47:52.310Z,12.32
2022-12-11T17:50:19.416Z,12.88
2022-12-11T17:52:45.888Z,12.30
2022-12-11T17:55:12.778Z,13.75
2022-12-11T17:57:39.546Z,11.27
2022-12-11T18:00:06.849Z,11.05
2022-12-11T18:02:38.892Z,11.60
2022-12-11T18:05:06.175Z,12.90
2022-12-11T18:07:32.666Z,13.48
2022-12-11T18:09:59.229Z,12.68
2022-12-11T18:12:25.799Z,14.70
2022-12-11T18:14:52.353Z,13.80
2022-12-11T18:17:18.842Z,12.20
2022-12-11T18:19:46.324Z,12.05
2022-12-11T18:22:12.908Z,12.60
2022-12-11T18:24:39.421Z,11.88
2022-12-11T18:27:10.168Z,12.25
2022-12-11T18:29:37.072Z,12.20
2022-12-11T18:32:03.845Z,13.52
2022-12-11T18:34:30.398Z,13.88
2022-12-11T18:36:56.932Z,13.98
2022-12-11T18:39:23.845Z,13.80
2022-12-11T18:42:09.737Z,14.63
2022-12-11T18:44:37.633Z,13.30
2022-12-11T18:47:04.221Z,14.02
2022-12-11T18:49:31.008Z,14.38
2022-12-11T18:51:57.562Z,12.68
2022-12-11T18:54:24.086Z,12.25
2022-12-11T18:56:50.563Z,14.65
2022-12-11T18:59:18.238Z,12.88
2022-12-11T19:01:44.773Z,14.63
2022-12-11T19:04:11.299Z,12.45
2022-12-11T19:06:37.925Z,14.02
2022-12-11T19:09:06.803Z,13.13
2022-12-11T19:11:34.228Z,13.00
2022-12-11T19:14:00.975Z,13.27
2022-12-11T19:16:30.020Z,14.65
2022-12-11T19:19:01.700Z,14.27
2022-12-11T19:21:30.129Z,13.38
2022-12-11T19:23:56.644Z,13.75
2022-12-11T19:26:23.947Z,12.82
2022-12-11T19:28:51.349Z,13.20
2022-12-11T19:31:21.385Z,14.43
2022-12-11T19:33:48.123Z,12.88
2022-12-11T19:36:20.791Z,14.45
2022-12-11T19:38:47.800Z,13.63
2022-12-11T19:41:23.501Z,14.80
2022-12-11T19:43:50.836Z,13.05
2022-12-11T19:46:18.798Z,14.85
2022-12-11T19:48:45.407Z,15.30
2022-12-11T19:51:17.375Z,12.65
2022-12-11T19:53:45.630Z,13.48
2022-12-11T19:56:12.805Z,12.75
2022-12-11T19:58:40.545Z,13.85
2022-12-11T20:01:07.466Z,11.85
2022-12-11T20:03:35.039Z,13.32
2022-12-11T20:06:07.217Z,12.90
2022-12-11T20:08:49.484Z,13.05
2022-12-11T20:11:18.620Z,13.70
2022-12-11T20:13:46.705Z,15.00
2022-12-11T20:16:13.937Z,14.68
2022-12-11T20:18:40.603Z,15.02
2022-12-11T20:21:09.417Z,15.02
2022-12-11T20:23:36.589Z,14.30
2022-12-11T20:26:08.400Z,15.02
2022-12-11T20:28:35.354Z,14.10
2022-12-11T20:31:07.223Z,15.48
2022-12-11T20:33:33.844Z,13.90
2022-12-11T20:36:00.321Z,14.25
2022-12-11T20:38:31.258Z,14.05
2022-12-11T20:41:00.744Z,14.77
2022-12-11T20:43:27.298Z,14.82
2022-12-11T20:45:53.913Z,15.07
2022-12-11T20:48:20.458Z,16.17
2022-12-11T20:50:47.001Z,15.13
2022-12-11T20:53:13.525Z,16.00
2022-12-11T20:55:41.349Z,14.95
2022-12-11T20:58:08.859Z,15.07
2022-12-11T21:00:39.437Z,14.52
2022-12-11T21:03:06.385Z,14.60
2022-12-11T21:05:32.967Z,13.30
2022-12-11T21:07:59.582Z,14.23
2022-12-11T21:10:26.141Z,15.18
2022-12-11T21:12:52.608Z,14.40
2022-12-11T21:15:19.124Z,14.05
2022-12-11T21:17:45.719Z,13.63
2022-12-11T21:20:12.328Z,14.55
2022-12-11T21:22:38.814Z,13.80
2022-12-11T21:25:05.773Z,17.15
2022-12-11T21:27:32.265Z,15.32
2022-12-11T21:29:58.829Z,14.57
2022-12-11T21:32:25.527Z,15.43
2022-12-11T21:34:52.018Z,14.43
2022-12-11T21:37:18.651Z,16.23
2022-12-11T21:39:45.228Z,14.48
2022-12-11T21:42:11.754Z,15.02
2022-12-11T21:45:37.138Z,13.95
2022-12-11T21:47:24.908Z,13.27
2022-12-11T21:49:51.397Z,15.57
2022-12-11T21:52:17.909Z,14.30
2022-12-11T21:54:44.388Z,12.98
2022-12-11T21:57:10.892Z,13.25
2022-12-11T21:59:37.402Z,13.93
2022-12-11T22:02:03.936Z,12.60
2022-12-11T22:04:30.515Z,11.85
2022-12-11T22:06:57.012Z,11.40
2022-12-11T22:09:23.825Z,12.02
2022-12-11T22:11:55.158Z,12.48
2022-12-11T22:14:24.809Z,10.65
2022-12-11T22:16:54.430Z,12.27
2022-12-11T22:19:21.388Z,11.50
2022-12-11T22:21:48.100Z,13.02
2022-12-11T22:24:15.181Z,12.00
2022-12-11T22:26:41.919Z,12.05
2022-12-11T22:29:08.979Z,11.15
2022-12-11T22:31:38.430Z,12.65
2022-12-11T22:34:05.485Z,11.18
2022-12-11T22:36:32.272Z,11.38
2022-12-11T22:39:00.304Z,11.48
2022-12-11T22:41:31.926Z,11.07
2022-12-11T22:43:59.136Z,12.30
2022-12-11T22:46:28.756Z,11.90
2022-12-11T22:48:55.538Z,12.48
2022-12-11T22:51:22.788Z,12.48
2022-12-11T22:53:49.410Z,12.10
2022-12-11T22:56:16.151Z,13.23
2022-12-11T22:58:42.686Z,12.05
2022-12-11T23:01:12.059Z,12.40
2022-12-11T23:03:38.985Z,12.13
2022-12-11T23:06:08.110Z,13.55
2022-12-11T23:08:35.562Z,11.13
2022-12-11T23:11:02.792Z,11.82
2022-12-11T23:13:29.330Z,10.82
2022-12-11T23:15:55.935Z,11.48
2022-12-11T23:18:22.425Z,8.98
2022-12-11T23:20:49.364Z,10.85
2022-12-11T23:23:19.025Z,11.65
2022-12-11T23:25:51.455Z,11.75
2022-12-11T23:28:18.137Z,11.73
2022-12-11T23:30:45.138Z,13.00
2022-12-11T23:33:12.134Z,12.82
2022-12-11T23:35:38.919Z,12.68
2022-12-11T23:38:05.478Z,12.65
2022-12-11T23:40:32.870Z,12.93
2022-12-11T23:42:59.362Z,12.40
2022-12-11T23:45:25.885Z,13.57
2022-12-11T23:47:52.346Z,13.93
2022-12-11T23:50:19.244Z,15.23
2022-12-11T23:52:45.720Z,13.82
2022-12-11T23:55:12.476Z,13.65
2022-12-11T23:57:39.091Z,13.63
